CheckWX is a tool to help pilots better visualize weather data.  It is not intended as a substitute for an official pre-flight weather briefing.

09:26:12 UTC

KQFW METAR
Hongcheon
Hongcheon, South Korea
Current

26 mins ago

KQFW 200900Z AUTO 16002KT 6000 HZ BKN040 03/M04 A3026 RMK A02 TSNO
Observed
Feb-20 @ 09:00 UTC
Wind
  • 160° at 2 KTS
Visibility
6,003 meters
Flight Rules
MVFR
Conditions
Haze
Cloud Levels
  • Broken at 4,000' AGL
Temperature
C / 37°F
Dewpoint
-4°C / 25°F
Humidity
60%
Altimeter
30.26" Hg
Pressure
1024.72 hPa
Previous

36 mins ago

KQFW 200850Z AUTO 22001KT 6000 HZ SCT039 03/M05 A3026 RMK A02 TSNO
Observed
Feb-20 @ 08:50 UTC
Wind
  • 220° at 1 KTS
Visibility
6,003 meters
Flight Rules
MVFR
Conditions
Haze
Cloud Levels
  • Scattered at 3,900' AGL
Temperature
C / 37°F
Dewpoint
-5°C / 23°F
Humidity
56%
Altimeter
30.26" Hg
Pressure
1024.72 hPa
Previous

46 mins ago

KQFW 200840Z AUTO 20003KT 6000 HZ BKN039 03/M05 A3025 RMK A02 TSNO
Observed
Feb-20 @ 08:40 UTC
Wind
  • 200° at 3 KTS
Visibility
6,003 meters
Flight Rules
MVFR
Conditions
Haze
Cloud Levels
  • Broken at 3,900' AGL
Temperature
C / 37°F
Dewpoint
-5°C / 23°F
Humidity
56%
Altimeter
30.25" Hg
Pressure
1024.42 hPa